createdAt,value
2023-05-18T00:02:26.610Z,6.46
2023-05-18T00:04:56.109Z,6.44
2023-05-18T00:07:24.056Z,6.53
2023-05-18T00:09:51.941Z,6.53
2023-05-18T00:12:19.924Z,6.52
2023-05-18T00:14:47.861Z,6.50
2023-05-18T00:17:17.674Z,6.44
2023-05-18T00:19:46.928Z,6.53
2023-05-18T00:22:18.996Z,6.52
2023-05-18T00:24:49.328Z,6.50
2023-05-18T00:27:17.175Z,6.49
2023-05-18T00:29:45.079Z,6.51
2023-05-18T00:32:13.042Z,6.51
2023-05-18T00:34:41.020Z,6.49
2023-05-18T00:37:08.950Z,6.47
2023-05-18T00:39:38.459Z,6.44
2023-05-18T00:42:06.839Z,6.37
2023-05-18T00:44:34.809Z,6.27
2023-05-18T00:47:03.205Z,6.25
2023-05-18T00:49:31.337Z,6.18
2023-05-18T00:52:01.557Z,6.03
2023-05-18T00:54:30.808Z,6.02
2023-05-18T00:57:02.203Z,6.00
2023-05-18T00:59:30.709Z,5.96
2023-05-18T01:01:59.614Z,5.93
2023-05-18T01:04:27.992Z,5.87
2023-05-18T01:06:58.598Z,5.83
2023-05-18T01:09:26.625Z,5.80
2023-05-18T01:12:02.933Z,5.76
2023-05-18T01:14:36.633Z,5.72
2023-05-18T01:17:11.394Z,5.68
2023-05-18T01:20:07.191Z,5.64
2023-05-18T01:22:51.472Z,5.57
2023-05-18T01:25:29.952Z,5.51
2023-05-18T01:28:06.153Z,5.42
2023-05-18T01:30:35.586Z,5.47
2023-05-18T01:33:08.396Z,5.44
2023-05-18T01:35:36.992Z,5.39
2023-05-18T01:38:05.113Z,5.36
2023-05-18T01:40:36.576Z,5.33
2023-05-18T01:43:11.273Z,5.29
2023-05-18T01:45:43.420Z,5.26
2023-05-18T01:48:13.153Z,5.22
2023-05-18T01:50:46.345Z,5.20
2023-05-18T01:53:21.240Z,5.11
2023-05-18T01:55:51.486Z,5.00
2023-05-18T01:58:23.111Z,5.08
2023-05-18T02:00:51.695Z,5.08
2023-05-18T02:03:19.953Z,5.08
2023-05-18T02:05:48.146Z,5.07
2023-05-18T02:08:16.368Z,5.09
2023-05-18T02:10:44.323Z,5.06
2023-05-18T02:13:12.292Z,5.02
2023-05-18T02:15:41.523Z,5.02
2023-05-18T02:18:09.419Z,5.02
2023-05-18T02:20:38.220Z,4.95
2023-05-18T02:23:06.117Z,4.99
2023-05-18T02:25:34.024Z,4.92
2023-05-18T02:28:02.134Z,4.90
2023-05-18T02:30:33.208Z,4.98
2023-05-18T02:33:03.372Z,4.93
2023-05-18T02:35:32.222Z,4.99
2023-05-18T02:38:00.547Z,5.00
2023-05-18T02:40:28.414Z,5.00
2023-05-18T02:42:56.492Z,4.99
2023-05-18T02:45:26.450Z,5.00
2023-05-18T02:47:54.547Z,5.02
2023-05-18T02:50:23.975Z,4.79
2023-05-18T02:52:51.833Z,5.03
2023-05-18T02:55:20.048Z,5.01
2023-05-18T02:57:48.318Z,5.03
2023-05-18T03:00:18.180Z,5.02
2023-05-18T03:02:48.626Z,5.07
2023-05-18T03:05:18.598Z,5.08
2023-05-18T03:07:51.070Z,5.01
2023-05-18T03:10:20.099Z,5.07
2023-05-18T03:12:48.442Z,5.06
2023-05-18T03:15:16.453Z,5.06
2023-05-18T03:17:44.561Z,5.00
2023-05-18T03:20:15.650Z,5.04
2023-05-18T03:22:43.693Z,5.03
2023-05-18T03:25:13.011Z,5.09
2023-05-18T03:27:40.878Z,5.13
2023-05-18T03:30:10.014Z,5.06
2023-05-18T03:32:38.389Z,5.16
2023-05-18T03:35:06.981Z,5.18
2023-05-18T03:37:34.840Z,5.11
2023-05-18T03:40:14.652Z,5.20
2023-05-18T03:42:43.624Z,5.08
2023-05-18T03:45:12.447Z,5.23
2023-05-18T03:47:41.400Z,5.18
2023-05-18T03:50:09.937Z,5.30
2023-05-18T03:52:38.182Z,5.33
2023-05-18T03:55:07.137Z,5.24
2023-05-18T03:57:36.386Z,5.39
2023-05-18T04:00:09.471Z,5.47
2023-05-18T04:02:37.843Z,5.51
2023-05-18T04:05:06.891Z,5.11
2023-05-18T04:07:34.786Z,5.57
2023-05-18T04:10:03.859Z,5.60
2023-05-18T04:12:31.817Z,5.51
2023-05-18T04:15:01.165Z,5.66
2023-05-18T04:17:29.768Z,5.69
2023-05-18T04:19:57.894Z,5.75
2023-05-18T04:22:29.866Z,5.75
2023-05-18T04:24:57.842Z,5.82
2023-05-18T04:27:25.842Z,5.86
2023-05-18T04:29:53.698Z,5.89
2023-05-18T04:32:27.103Z,5.92
2023-05-18T04:34:58.633Z,5.88
2023-05-18T04:37:26.631Z,5.98
2023-05-18T04:39:54.792Z,6.01
2023-05-18T04:42:22.674Z,6.05
2023-05-18T04:44:52.280Z,6.09
2023-05-18T04:47:22.086Z,6.12
2023-05-18T04:49:52.425Z,6.10
2023-05-18T04:52:20.752Z,6.09
2023-05-18T04:54:48.891Z,6.22
2023-05-18T04:57:16.868Z,6.23
2023-05-18T04:59:47.375Z,6.28
2023-05-18T05:02:15.358Z,6.32
2023-05-18T05:04:43.374Z,6.33
2023-05-18T05:07:12.720Z,6.35
2023-05-18T05:09:40.575Z,6.35
2023-05-18T05:12:09.248Z,6.38
2023-05-18T05:14:37.175Z,6.39
2023-05-18T05:17:05.343Z,6.42
2023-05-18T05:19:33.555Z,6.27
2023-05-18T05:22:04.852Z,6.49
2023-05-18T05:24:34.701Z,6.17
2023-05-18T05:27:06.769Z,6.53
2023-05-18T05:29:34.737Z,5.96
2023-05-18T05:32:02.628Z,6.58
2023-05-18T05:34:30.663Z,6.31
2023-05-18T05:36:58.625Z,6.67
2023-05-18T05:39:26.782Z,6.71
2023-05-18T05:41:57.190Z,6.72
2023-05-18T05:44:25.345Z,6.74
2023-05-18T05:46:53.358Z,6.77
2023-05-18T05:49:21.574Z,6.79
2023-05-18T05:51:49.676Z,6.79
2023-05-18T05:54:17.569Z,6.87
2023-05-18T05:56:45.759Z,6.86
2023-05-18T05:59:15.613Z,6.99
2023-05-18T06:01:43.551Z,7.06
2023-05-18T06:04:12.705Z,7.00
2023-05-18T06:06:41.605Z,6.80
2023-05-18T06:09:09.551Z,7.21
2023-05-18T06:11:37.638Z,7.27
2023-05-18T06:14:05.858Z,7.29
2023-05-18T06:16:35.226Z,7.30
2023-05-18T06:19:03.315Z,7.29
2023-05-18T06:21:31.728Z,7.10
2023-05-18T06:24:01.415Z,7.20
2023-05-18T06:26:29.388Z,7.43
2023-05-18T06:28:57.513Z,7.52
2023-05-18T06:31:25.950Z,7.30
2023-05-18T06:33:55.610Z,7.60
2023-05-18T06:36:23.579Z,7.68
2023-05-18T06:38:51.450Z,7.62
2023-05-18T06:41:19.710Z,7.72
2023-05-18T06:43:47.776Z,7.80
2023-05-18T06:46:21.192Z,7.82
2023-05-18T06:48:49.418Z,7.95
2023-05-18T06:51:18.665Z,7.95
2023-05-18T06:53:47.654Z,7.82
2023-05-18T06:56:18.909Z,7.67
2023-05-18T06:58:46.861Z,8.04
2023-05-18T07:01:15.540Z,8.17
2023-05-18T07:03:43.640Z,8.21
2023-05-18T07:06:12.031Z,8.29
2023-05-18T07:08:41.743Z,8.38
2023-05-18T07:11:09.900Z,8.44
2023-05-18T07:13:37.802Z,8.55
2023-05-18T07:16:05.932Z,8.71
2023-05-18T07:18:34.119Z,8.85
2023-05-18T07:21:02.192Z,9.11
2023-05-18T07:23:30.084Z,9.37
2023-05-18T07:25:59.559Z,9.97
2023-05-18T07:28:29.456Z,10.64
2023-05-18T07:30:57.318Z,10.86
2023-05-18T07:33:25.307Z,11.55
2023-05-18T07:35:53.219Z,12.39
2023-05-18T07:38:21.129Z,12.91
2023-05-18T07:40:49.108Z,13.65
2023-05-18T07:43:18.380Z,14.20
2023-05-18T07:45:46.369Z,14.30
2023-05-18T07:48:15.636Z,14.12
2023-05-18T07:50:43.532Z,14.01
2023-05-18T07:53:11.467Z,13.54
2023-05-18T07:55:39.471Z,13.33
2023-05-18T07:58:07.363Z,13.49
2023-05-18T08:00:37.384Z,13.39
2023-05-18T08:03:06.947Z,13.40
2023-05-18T08:05:34.956Z,13.52
2023-05-18T08:08:06.625Z,13.92
2023-05-18T08:10:35.208Z,14.40
2023-05-18T08:13:03.559Z,14.17
2023-05-18T08:15:31.647Z,14.69
2023-05-18T08:18:01.635Z,14.11
2023-05-18T08:20:30.221Z,14.80
2023-05-18T08:22:58.153Z,15.39
2023-05-18T08:25:26.500Z,15.90
2023-05-18T08:27:54.686Z,16.37
2023-05-18T08:30:22.821Z,16.49
2023-05-18T08:32:50.936Z,16.07
2023-05-18T08:35:20.335Z,16.65
2023-05-18T08:37:50.171Z,16.62
2023-05-18T08:40:18.209Z,16.67
2023-05-18T08:42:52.558Z,17.09
2023-05-18T08:45:25.149Z,17.60
2023-05-18T08:47:57.204Z,17.19
2023-05-18T08:50:27.676Z,16.62
2023-05-18T08:52:57.075Z,16.49
2023-05-18T08:55:26.666Z,16.86
2023-05-18T08:58:00.012Z,16.87
2023-05-18T09:00:28.346Z,16.03
2023-05-18T09:02:56.964Z,15.63
2023-05-18T09:05:26.480Z,15.70
2023-05-18T09:07:57.253Z,16.11
2023-05-18T09:10:26.004Z,16.42
2023-05-18T09:12:55.937Z,16.89
2023-05-18T09:15:25.477Z,17.56
2023-05-18T09:17:53.627Z,17.84
2023-05-18T09:20:21.884Z,18.11
2023-05-18T09:22:51.803Z,18.49
2023-05-18T09:25:20.064Z,18.43
2023-05-18T09:27:49.378Z,18.70
2023-05-18T09:30:17.402Z,17.49
2023-05-18T09:32:48.244Z,17.13
2023-05-18T09:35:16.796Z,17.70
2023-05-18T09:37:44.680Z,17.44
2023-05-18T09:40:16.169Z,17.33
2023-05-18T09:42:46.039Z,16.90
2023-05-18T09:45:18.973Z,16.62
2023-05-18T09:47:47.442Z,16.18
2023-05-18T09:50:15.358Z,16.70
2023-05-18T09:52:44.303Z,16.93
2023-05-18T09:55:14.147Z,17.55
2023-05-18T09:57:44.317Z,17.44
2023-05-18T10:00:13.539Z,17.40
2023-05-18T10:02:42.394Z,17.45
2023-05-18T10:05:20.789Z,17.67
2023-05-18T10:07:48.977Z,17.43
2023-05-18T10:10:20.887Z,17.67
2023-05-18T10:12:49.404Z,17.73
2023-05-18T10:15:19.676Z,17.56
2023-05-18T10:17:48.516Z,17.39
2023-05-18T10:20:19.995Z,17.51
2023-05-18T10:22:49.586Z,18.37
2023-05-18T10:25:22.469Z,19.15
2023-05-18T10:27:51.951Z,19.24
2023-05-18T10:30:22.926Z,19.29
2023-05-18T10:32:52.595Z,19.39
2023-05-18T10:35:21.814Z,19.35
2023-05-18T10:37:53.112Z,19.65
2023-05-18T10:40:22.650Z,19.54
2023-05-18T10:42:53.290Z,18.95
2023-05-18T10:45:21.821Z,18.78
2023-05-18T10:47:54.345Z,18.85
2023-05-18T10:50:23.981Z,19.02
2023-05-18T10:52:54.331Z,18.76
2023-05-18T10:55:23.776Z,19.07
2023-05-18T10:57:56.463Z,18.66
2023-05-18T11:00:24.723Z,18.00
2023-05-18T11:02:53.828Z,17.84
2023-05-18T11:05:26.068Z,18.32
2023-05-18T11:08:01.562Z,18.72
2023-05-18T11:10:37.047Z,19.21
2023-05-18T11:13:07.143Z,19.71
2023-05-18T11:16:06.650Z,18.90
2023-05-18T11:18:44.441Z,18.98
2023-05-18T11:21:23.413Z,19.10
2023-05-18T11:24:24.906Z,19.68
2023-05-18T11:26:56.085Z,19.75
2023-05-18T11:29:25.927Z,19.04
2023-05-18T11:31:58.840Z,18.01
2023-05-18T11:34:45.410Z,18.55
2023-05-18T11:37:16.263Z,19.16
2023-05-18T11:39:59.702Z,19.94
2023-05-18T11:42:35.244Z,20.73
2023-05-18T11:45:10.583Z,20.93
2023-05-18T11:47:40.577Z,20.44
2023-05-18T11:50:10.421Z,20.82
2023-05-18T11:52:48.027Z,20.83
2023-05-18T11:55:17.464Z,21.13
2023-05-18T11:57:52.397Z,22.01
2023-05-18T12:00:21.634Z,22.51
2023-05-18T12:02:52.636Z,21.95
2023-05-18T12:05:21.180Z,21.41
2023-05-18T12:07:54.130Z,21.66
2023-05-18T12:10:22.517Z,22.37
2023-05-18T12:12:53.524Z,23.05
2023-05-18T12:15:24.039Z,23.51
2023-05-18T12:17:52.809Z,23.66
2023-05-18T12:20:22.430Z,22.94
2023-05-18T12:22:52.992Z,21.54
2023-05-18T12:25:22.046Z,21.60
2023-05-18T12:27:53.365Z,22.28
2023-05-18T12:30:22.775Z,22.90
2023-05-18T12:32:53.432Z,23.37
2023-05-18T12:35:23.729Z,23.81
2023-05-18T12:37:51.918Z,23.76
2023-05-18T12:40:21.186Z,23.22
2023-05-18T12:42:54.634Z,22.25
2023-05-18T12:45:25.251Z,22.79
2023-05-18T12:47:55.301Z,23.19
2023-05-18T12:50:25.051Z,22.17
2023-05-18T12:52:53.400Z,21.83
2023-05-18T12:55:22.960Z,21.87
2023-05-18T12:58:02.105Z,21.49
2023-05-18T13:00:33.898Z,21.39
2023-05-18T13:03:08.906Z,21.60
2023-05-18T13:05:38.396Z,21.74
2023-05-18T13:08:06.712Z,21.75
2023-05-18T13:10:34.921Z,22.46
2023-05-18T13:13:04.897Z,21.81
2023-05-18T13:15:37.806Z,21.28
2023-05-18T13:18:10.184Z,21.92
2023-05-18T13:20:43.278Z,22.92
2023-05-18T13:23:13.128Z,23.79
2023-05-18T13:25:41.069Z,24.11
2023-05-18T13:28:11.686Z,23.93
2023-05-18T13:30:40.211Z,23.89
2023-05-18T13:33:09.358Z,24.15
2023-05-18T13:35:37.728Z,23.80
2023-05-18T13:38:06.572Z,23.11
2023-05-18T13:40:34.564Z,22.25
2023-05-18T13:43:02.852Z,22.44
2023-05-18T13:45:33.022Z,22.92
2023-05-18T13:48:01.438Z,22.99
2023-05-18T13:50:29.715Z,23.47
2023-05-18T13:52:58.110Z,22.23
2023-05-18T13:55:26.062Z,21.35
2023-05-18T13:57:55.247Z,20.65
2023-05-18T14:00:23.288Z,19.92
2023-05-18T14:02:53.234Z,20.21
2023-05-18T14:05:22.329Z,20.68
2023-05-18T14:07:50.423Z,20.87
2023-05-18T14:10:18.264Z,20.57
2023-05-18T14:12:46.368Z,21.08
2023-05-18T14:15:14.973Z,20.23
2023-05-18T14:17:43.793Z,20.74
2023-05-18T14:20:13.855Z,21.52
2023-05-18T14:22:42.028Z,21.71
2023-05-18T14:25:10.730Z,21.29
2023-05-18T14:27:38.986Z,20.94
2023-05-18T14:30:09.200Z,20.53
2023-05-18T14:32:37.530Z,20.44
2023-05-18T14:35:06.195Z,20.87
2023-05-18T14:37:35.567Z,21.17
2023-05-18T14:40:05.933Z,21.49
2023-05-18T14:42:34.069Z,21.54
2023-05-18T14:45:02.014Z,20.91
2023-05-18T14:47:29.975Z,20.58
2023-05-18T14:49:57.844Z,21.85
2023-05-18T14:52:26.290Z,23.49
2023-05-18T14:54:55.536Z,24.28
2023-05-18T14:57:25.357Z,23.52
2023-05-18T14:59:54.552Z,23.19
2023-05-18T15:02:22.478Z,22.70
2023-05-18T15:04:50.450Z,22.70
2023-05-18T15:07:18.592Z,23.44
2023-05-18T15:09:47.588Z,23.76
2023-05-18T15:12:19.791Z,25.42
2023-05-18T15:14:47.729Z,25.63
2023-05-18T15:17:16.121Z,25.63
2023-05-18T15:19:43.983Z,25.35
2023-05-18T15:22:11.849Z,25.08
2023-05-18T15:24:39.877Z,24.18
2023-05-18T15:27:08.826Z,23.82
2023-05-18T15:29:38.064Z,24.33
2023-05-18T15:32:07.144Z,25.15
2023-05-18T15:34:35.313Z,25.77
2023-05-18T15:37:03.485Z,25.93
2023-05-18T15:39:31.528Z,26.42
2023-05-18T15:41:59.476Z,25.91
2023-05-18T15:44:29.481Z,25.44
2023-05-18T15:46:59.070Z,25.21
2023-05-18T15:49:27.038Z,25.92
2023-05-18T15:51:54.942Z,26.07
2023-05-18T15:54:22.975Z,26.58
2023-05-18T15:56:51.129Z,27.12
2023-05-18T15:59:19.000Z,27.03
2023-05-18T16:01:47.200Z,26.78
2023-05-18T16:04:16.529Z,27.14
2023-05-18T16:06:44.541Z,27.39
2023-05-18T16:09:12.670Z,27.07
2023-05-18T16:11:40.583Z,26.49
2023-05-18T16:14:09.563Z,26.09
2023-05-18T16:16:37.605Z,26.25
2023-05-18T16:19:07.554Z,26.16
2023-05-18T16:21:36.947Z,26.55
2023-05-18T16:24:05.361Z,26.51
2023-05-18T16:26:34.086Z,26.56
2023-05-18T16:29:03.357Z,26.64
2023-05-18T16:31:31.525Z,26.63
2023-05-18T16:33:59.873Z,25.86
2023-05-18T16:36:28.301Z,23.78
2023-05-18T16:39:02.884Z,23.22
2023-05-18T16:41:30.801Z,23.44
2023-05-18T16:43:58.740Z,23.42
2023-05-18T16:46:26.795Z,23.62
2023-05-18T16:48:54.980Z,23.13
2023-05-18T16:51:23.502Z,23.09
2023-05-18T16:53:52.756Z,22.53
2023-05-18T16:56:22.527Z,22.44
2023-05-18T16:58:52.376Z,22.41
2023-05-18T17:01:28.218Z,22.21
2023-05-18T17:03:57.417Z,20.90
2023-05-18T17:06:26.105Z,19.50
2023-05-18T17:08:58.184Z,18.80
2023-05-18T17:11:28.104Z,18.07
2023-05-18T17:13:57.685Z,17.30
2023-05-18T17:16:26.827Z,16.95
2023-05-18T17:18:56.174Z,16.71
2023-05-18T17:21:26.713Z,16.62
2023-05-18T17:23:54.647Z,16.58
2023-05-18T17:26:23.028Z,16.51
2023-05-18T17:28:53.059Z,16.48
2023-05-18T17:31:21.042Z,16.41
2023-05-18T17:33:49.025Z,16.24
2023-05-18T17:36:18.251Z,15.90
2023-05-18T17:38:46.935Z,15.94
2023-05-18T17:41:15.016Z,15.85
2023-05-18T17:43:42.939Z,15.75
2023-05-18T17:46:12.194Z,15.62
2023-05-18T17:48:40.166Z,15.51
2023-05-18T17:51:08.313Z,15.42
2023-05-18T17:53:41.883Z,15.25
2023-05-18T17:56:10.532Z,15.20
2023-05-18T17:58:39.457Z,15.28
2023-05-18T18:01:08.751Z,14.78
2023-05-18T18:03:38.450Z,15.27
2023-05-18T18:06:06.789Z,15.17
2023-05-18T18:08:34.804Z,15.00
2023-05-18T18:11:02.902Z,15.22
2023-05-18T18:13:30.899Z,15.18
2023-05-18T18:16:00.360Z,15.11
2023-05-18T18:18:28.518Z,15.04
2023-05-18T18:21:00.282Z,14.91
2023-05-18T18:23:28.320Z,14.99
2023-05-18T18:25:56.406Z,14.96
2023-05-18T18:28:24.277Z,14.92
2023-05-18T18:30:52.261Z,14.89
2023-05-18T18:33:21.730Z,14.78
2023-05-18T18:35:50.018Z,14.76
2023-05-18T18:38:19.336Z,14.75
2023-05-18T18:40:47.396Z,14.62
2023-05-18T18:43:15.835Z,14.70
2023-05-18T18:45:43.978Z,14.67
2023-05-18T18:48:11.951Z,14.68
2023-05-18T18:50:39.965Z,14.61
2023-05-18T18:53:07.858Z,14.49
2023-05-18T18:55:37.339Z,14.52
2023-05-18T18:58:05.248Z,14.50
2023-05-18T19:00:33.130Z,14.45
2023-05-18T19:03:01.146Z,14.41
2023-05-18T19:05:31.011Z,14.31
2023-05-18T19:07:59.430Z,14.06
2023-05-18T19:10:27.353Z,13.76
2023-05-18T19:12:59.451Z,13.89
2023-05-18T19:15:27.494Z,13.75
2023-05-18T19:17:55.539Z,13.63
2023-05-18T19:20:24.091Z,13.53
2023-05-18T19:22:53.475Z,13.46
2023-05-18T19:25:21.697Z,13.35
2023-05-18T19:27:49.577Z,13.27
2023-05-18T19:30:21.230Z,13.13
2023-05-18T19:32:49.978Z,13.03
2023-05-18T19:35:19.802Z,12.98
2023-05-18T19:37:48.263Z,12.95
2023-05-18T19:40:17.002Z,12.83
2023-05-18T19:42:45.338Z,12.75
2023-05-18T19:45:13.216Z,12.67
2023-05-18T19:47:45.005Z,12.65
2023-05-18T19:50:13.246Z,12.58
2023-05-18T19:52:41.310Z,12.49
2023-05-18T19:55:09.483Z,12.40
2023-05-18T19:57:37.366Z,12.28
2023-05-18T20:00:07.120Z,12.23
2023-05-18T20:02:35.152Z,12.16
2023-05-18T20:05:06.080Z,12.07
2023-05-18T20:07:34.415Z,12.03
2023-05-18T20:10:02.442Z,11.98
2023-05-18T20:12:32.188Z,11.90
2023-05-18T20:15:00.178Z,11.80
2023-05-18T20:17:28.343Z,11.84
2023-05-18T20:19:56.254Z,11.83
2023-05-18T20:22:25.584Z,11.78
2023-05-18T20:24:54.396Z,11.64
2023-05-18T20:27:22.379Z,11.63
2023-05-18T20:29:50.287Z,11.59
2023-05-18T20:32:18.329Z,11.54
2023-05-18T20:34:46.218Z,11.52
2023-05-18T20:37:14.906Z,11.48
2023-05-18T20:39:50.598Z,11.12
2023-05-18T20:42:22.086Z,11.41
2023-05-18T20:44:52.419Z,11.04
2023-05-18T20:47:21.135Z,11.34
2023-05-18T20:49:49.339Z,11.29
2023-05-18T20:52:17.409Z,10.96
2023-05-18T20:54:47.408Z,11.19
2023-05-18T20:57:15.375Z,11.21
2023-05-18T20:59:43.475Z,11.17
2023-05-18T21:02:11.328Z,11.16
2023-05-18T21:04:39.265Z,11.13
2023-05-18T21:07:07.196Z,11.06
2023-05-18T21:09:35.062Z,11.09
2023-05-18T21:12:04.529Z,10.97
2023-05-18T21:14:32.490Z,11.06
2023-05-18T21:17:00.607Z,10.97
2023-05-18T21:19:28.614Z,11.01
2023-05-18T21:21:56.852Z,10.90
2023-05-18T21:24:24.744Z,10.95
2023-05-18T21:26:52.874Z,10.88
2023-05-18T21:29:22.297Z,10.92
2023-05-18T21:31:50.274Z,10.11
2023-05-18T21:34:18.220Z,10.85
2023-05-18T21:36:46.417Z,10.79
2023-05-18T21:39:14.328Z,10.76
2023-05-18T21:41:44.398Z,10.74
2023-05-18T21:44:12.508Z,10.79
2023-05-18T21:46:41.830Z,10.71
2023-05-18T21:49:09.892Z,10.57
2023-05-18T21:51:37.837Z,10.67
2023-05-18T21:54:06.006Z,10.61
2023-05-18T21:56:34.883Z,10.60
2023-05-18T21:59:02.856Z,10.51
2023-05-18T22:01:30.997Z,10.54
2023-05-18T22:04:00.812Z,10.47
2023-05-18T22:06:29.391Z,10.50
2023-05-18T22:08:57.285Z,10.45
2023-05-18T22:11:25.144Z,10.46
2023-05-18T22:13:53.147Z,10.38
2023-05-18T22:16:21.323Z,10.34
2023-05-18T22:18:49.248Z,10.35
2023-05-18T22:21:18.643Z,10.18
2023-05-18T22:23:46.477Z,10.33
2023-05-18T22:26:14.469Z,10.32
2023-05-18T22:28:42.626Z,10.19
2023-05-18T22:31:10.584Z,10.28
2023-05-18T22:33:38.465Z,10.23
2023-05-18T22:36:07.202Z,10.22
2023-05-18T22:38:36.440Z,10.21
2023-05-18T22:41:04.293Z,10.04
2023-05-18T22:43:32.250Z,10.10
2023-05-18T22:46:00.210Z,10.08
2023-05-18T22:48:28.559Z,10.15
2023-05-18T22:50:57.379Z,10.05
2023-05-18T22:53:25.230Z,10.08
2023-05-18T22:55:56.582Z,9.94
2023-05-18T22:58:24.680Z,10.01
2023-05-18T23:00:52.824Z,9.73
2023-05-18T23:03:20.847Z,9.97
2023-05-18T23:05:49.458Z,9.95
2023-05-18T23:08:17.420Z,9.94
2023-05-18T23:10:45.367Z,9.91
2023-05-18T23:13:16.188Z,9.88
2023-05-18T23:15:44.444Z,9.86
2023-05-18T23:18:12.592Z,9.87
2023-05-18T23:20:41.667Z,9.84
2023-05-18T23:23:09.974Z,9.85
2023-05-18T23:25:37.851Z,9.80
2023-05-18T23:28:06.228Z,9.79
2023-05-18T23:30:35.484Z,9.74
2023-05-18T23:33:04.014Z,9.68
2023-05-18T23:35:32.584Z,9.58
2023-05-18T23:38:04.763Z,9.62
2023-05-18T23:40:33.833Z,9.60
2023-05-18T23:43:02.565Z,9.56
2023-05-18T23:45:31.139Z,9.49
2023-05-18T23:48:01.103Z,9.50
2023-05-18T23:50:29.722Z,9.40
2023-05-18T23:53:04.268Z,9.42
2023-05-18T23:55:34.999Z,9.43
2023-05-18T23:58:03.794Z,9.41
